createdAt,value
2023-03-08T00:00:30.917Z,979.67
2023-03-08T00:01:30.887Z,979.62
2023-03-08T00:02:30.891Z,979.59
2023-03-08T00:03:30.897Z,979.64
2023-03-08T00:04:30.847Z,979.66
2023-03-08T00:05:30.790Z,979.64
2023-03-08T00:06:30.761Z,979.68
2023-03-08T00:07:30.737Z,979.65
2023-03-08T00:08:30.716Z,979.70
2023-03-08T00:09:30.691Z,979.76
2023-03-08T00:10:30.652Z,979.70
2023-03-08T00:11:30.639Z,979.61
2023-03-08T00:12:30.614Z,979.66
2023-03-08T00:13:30.585Z,979.59
2023-03-08T00:14:30.557Z,979.64
2023-03-08T00:15:30.551Z,979.61
2023-03-08T00:16:30.498Z,979.60
2023-03-08T00:17:30.489Z,979.62
2023-03-08T00:18:30.453Z,979.60
2023-03-08T00:19:30.435Z,979.58
2023-03-08T00:20:30.404Z,979.59
2023-03-08T00:21:30.381Z,979.60
2023-03-08T00:22:30.359Z,979.61
2023-03-08T00:23:30.334Z,979.63
2023-03-08T00:24:30.299Z,979.61
2023-03-08T00:25:30.280Z,979.58
2023-03-08T00:26:30.255Z,979.61
2023-03-08T00:27:30.229Z,979.61
2023-03-08T00:28:30.203Z,979.60
2023-03-08T00:29:30.182Z,979.59
2023-03-08T00:30:30.158Z,979.60
2023-03-08T00:31:30.206Z,979.61
2023-03-08T00:32:30.176Z,979.61
2023-03-08T00:33:30.082Z,979.64
2023-03-08T00:34:30.058Z,979.62
2023-03-08T00:35:30.031Z,979.65
2023-03-08T00:36:30.008Z,979.60
2023-03-08T00:37:29.973Z,979.61
2023-03-08T00:38:29.953Z,979.57
2023-03-08T00:39:29.925Z,979.56
2023-03-08T00:40:29.903Z,979.60
2023-03-08T00:41:29.877Z,979.60
2023-03-08T00:42:29.856Z,979.61
2023-03-08T00:43:29.839Z,979.64
2023-03-08T00:44:29.802Z,979.56
2023-03-08T00:45:29.780Z,979.58
2023-03-08T00:46:29.825Z,979.64
2023-03-08T00:47:29.728Z,979.64
2023-03-08T00:48:29.712Z,979.61
2023-03-08T00:49:29.681Z,979.59
2023-03-08T00:50:29.665Z,979.56
2023-03-08T00:51:29.624Z,979.57
2023-03-08T00:52:29.655Z,979.58
2023-03-08T00:53:29.586Z,979.59
2023-03-08T00:54:29.555Z,979.61
2023-03-08T00:55:29.524Z,979.57
2023-03-08T00:56:29.506Z,979.57
2023-03-08T00:57:29.474Z,979.54
2023-03-08T00:58:29.447Z,979.55
2023-03-08T00:59:29.419Z,979.58
2023-03-08T01:00:29.400Z,979.55
2023-03-08T01:01:29.366Z,979.54
2023-03-08T01:02:29.354Z,979.46
2023-03-08T01:03:29.334Z,979.53
2023-03-08T01:04:29.296Z,979.50
2023-03-08T01:05:29.265Z,979.50
2023-03-08T01:06:29.247Z,979.55
2023-03-08T01:07:29.218Z,979.50
2023-03-08T01:08:29.196Z,979.48
2023-03-08T01:09:29.175Z,979.44
2023-03-08T01:10:29.144Z,979.46
2023-03-08T01:11:29.113Z,979.41
2023-03-08T01:12:29.098Z,979.42
2023-03-08T01:13:29.067Z,979.40
2023-03-08T01:14:29.047Z,979.40
2023-03-08T01:15:29.017Z,979.35
2023-03-08T01:16:29.031Z,979.38
2023-03-08T01:17:28.970Z,979.29
2023-03-08T01:18:28.960Z,979.31
2023-03-08T01:19:28.917Z,979.31
2023-03-08T01:20:28.888Z,979.32
2023-03-08T01:21:28.873Z,979.34
2023-03-08T01:22:28.850Z,979.28
2023-03-08T01:23:28.815Z,979.31
2023-03-08T01:24:28.801Z,979.32
2023-03-08T01:25:28.754Z,979.27
2023-03-08T01:26:28.752Z,979.27
2023-03-08T01:27:28.710Z,979.28
2023-03-08T01:28:28.695Z,979.22
2023-03-08T01:29:28.659Z,979.25
2023-03-08T01:30:28.654Z,979.29
2023-03-08T01:31:28.614Z,979.28
2023-03-08T01:32:28.623Z,979.28
2023-03-08T01:33:28.559Z,979.30
2023-03-08T01:34:28.539Z,979.24
2023-03-08T01:35:28.518Z,979.28
2023-03-08T01:36:28.510Z,979.23
2023-03-08T01:37:28.463Z,979.25
2023-03-08T01:38:28.867Z,979.23
2023-03-08T01:39:28.405Z,979.18
2023-03-08T01:40:28.392Z,979.18
2023-03-08T01:41:28.381Z,979.17
2023-03-08T01:42:28.330Z,979.24
2023-03-08T01:43:28.321Z,979.20
2023-03-08T01:44:28.281Z,979.20
2023-03-08T01:45:28.249Z,979.16
2023-03-08T01:46:28.233Z,979.17
2023-03-08T01:47:28.216Z,979.19
2023-03-08T01:48:28.175Z,979.17
2023-03-08T01:49:28.144Z,979.18
2023-03-08T01:50:28.141Z,979.14
2023-03-08T01:51:28.097Z,979.18
2023-03-08T01:52:28.079Z,979.15
2023-03-08T01:53:28.040Z,979.12
2023-03-08T01:54:28.032Z,979.12
2023-03-08T01:55:28.007Z,979.13
2023-03-08T01:56:27.983Z,979.09
2023-03-08T01:57:28.006Z,979.08
2023-03-08T01:58:27.926Z,979.06
2023-03-08T01:59:27.895Z,979.04
2023-03-08T02:00:27.873Z,979.09
2023-03-08T02:01:27.877Z,979.05
2023-03-08T02:02:28.517Z,978.97
2023-03-08T02:03:27.788Z,979.01
2023-03-08T02:04:27.774Z,978.99
2023-03-08T02:05:27.740Z,979.00
2023-03-08T02:06:27.716Z,979.00
2023-03-08T02:07:27.692Z,978.98
2023-03-08T02:08:27.670Z,978.96
2023-03-08T02:09:27.637Z,978.98
2023-03-08T02:10:27.614Z,979.04
2023-03-08T02:11:27.603Z,978.99
2023-03-08T02:12:27.570Z,978.97
2023-03-08T02:13:27.540Z,978.93
2023-03-08T02:14:27.561Z,978.94
2023-03-08T02:15:27.491Z,978.92
2023-03-08T02:16:27.467Z,978.95
2023-03-08T02:17:27.442Z,978.94
2023-03-08T02:18:27.416Z,978.93
2023-03-08T02:19:27.388Z,978.94
2023-03-08T02:20:27.367Z,978.93
2023-03-08T02:21:27.367Z,978.87
2023-03-08T02:22:27.316Z,978.88
2023-03-08T02:23:27.289Z,978.85
2023-03-08T02:24:27.264Z,978.85
2023-03-08T02:25:27.242Z,978.84
2023-03-08T02:26:27.216Z,978.84
2023-03-08T02:27:27.242Z,978.81
2023-03-08T02:28:27.184Z,978.84
2023-03-08T02:29:27.133Z,978.84
2023-03-08T02:30:27.131Z,978.83
2023-03-08T02:31:27.086Z,978.81
2023-03-08T02:32:27.080Z,978.82
2023-03-08T02:33:27.046Z,978.82
2023-03-08T02:34:27.014Z,978.79
2023-03-08T02:35:26.989Z,978.75
2023-03-08T02:36:26.965Z,978.75
2023-03-08T02:37:26.931Z,978.70
2023-03-08T02:38:26.913Z,978.67
2023-03-08T02:39:26.888Z,978.68
2023-03-08T02:40:26.870Z,978.64
2023-03-08T02:41:26.835Z,978.64
2023-03-08T02:42:26.810Z,978.63
2023-03-08T02:43:26.786Z,978.63
2023-03-08T02:44:26.793Z,978.64
2023-03-08T02:45:26.767Z,978.59
2023-03-08T02:46:26.706Z,978.61
2023-03-08T02:47:26.690Z,978.58
2023-03-08T02:48:26.658Z,978.59
2023-03-08T02:49:26.628Z,978.57
2023-03-08T02:50:26.608Z,978.55
2023-03-08T02:51:26.580Z,978.51
2023-03-08T02:52:26.556Z,978.53
2023-03-08T02:53:26.523Z,978.52
2023-03-08T02:54:26.504Z,978.55
2023-03-08T02:55:26.479Z,978.52
2023-03-08T02:56:26.456Z,978.52
2023-03-08T02:57:26.429Z,978.50
2023-03-08T02:58:26.400Z,978.52
2023-03-08T02:59:26.372Z,978.52
2023-03-08T03:00:26.351Z,978.50
2023-03-08T03:01:26.363Z,978.49
2023-03-08T03:02:26.324Z,978.51
2023-03-08T03:03:26.271Z,978.48
2023-03-08T03:04:26.257Z,978.43
2023-03-08T03:05:26.224Z,978.39
2023-03-08T03:06:26.292Z,978.34
2023-03-08T03:07:26.192Z,978.33
2023-03-08T03:08:26.152Z,978.36
2023-03-08T03:09:26.118Z,978.38
2023-03-08T03:10:26.101Z,978.34
2023-03-08T03:11:26.071Z,978.36
2023-03-08T03:12:26.076Z,978.35
2023-03-08T03:13:26.026Z,978.34
2023-03-08T03:14:25.993Z,978.35
2023-03-08T03:15:25.963Z,978.34
2023-03-08T03:16:25.983Z,978.39
2023-03-08T03:17:25.910Z,978.36
2023-03-08T03:18:25.894Z,978.36
2023-03-08T03:19:25.870Z,978.33
2023-03-08T03:20:25.834Z,978.33
2023-03-08T03:21:25.806Z,978.36
2023-03-08T03:22:25.800Z,978.35
2023-03-08T03:23:25.753Z,978.32
2023-03-08T03:24:25.731Z,978.30
2023-03-08T03:25:25.702Z,978.28
2023-03-08T03:26:25.684Z,978.26
2023-03-08T03:27:25.657Z,978.31
2023-03-08T03:28:25.638Z,978.30
2023-03-08T03:29:25.658Z,978.31
2023-03-08T03:30:25.576Z,978.31
2023-03-08T03:31:25.647Z,978.23
2023-03-08T03:32:25.629Z,978.27
2023-03-08T03:33:25.501Z,978.23
2023-03-08T03:34:25.481Z,978.22
2023-03-08T03:35:25.455Z,978.18
2023-03-08T03:36:25.471Z,978.18
2023-03-08T03:37:25.402Z,978.18
2023-03-08T03:38:25.386Z,978.18
2023-03-08T03:39:25.418Z,978.17
2023-03-08T03:40:25.338Z,978.14
2023-03-08T03:41:25.320Z,978.16
2023-03-08T03:42:25.272Z,978.14
2023-03-08T03:43:25.302Z,978.19
2023-03-08T03:44:25.227Z,978.13
2023-03-08T03:45:25.232Z,978.19
2023-03-08T03:46:25.188Z,978.19
2023-03-08T03:47:25.144Z,978.17
2023-03-08T03:48:25.124Z,978.19
2023-03-08T03:49:25.094Z,978.15
2023-03-08T03:50:25.073Z,978.16
2023-03-08T03:51:25.062Z,978.19
2023-03-08T03:52:25.026Z,978.17
2023-03-08T03:53:25.004Z,978.19
2023-03-08T03:54:24.979Z,978.17
2023-03-08T03:55:24.946Z,978.20
2023-03-08T03:56:24.922Z,978.19
2023-03-08T03:57:24.892Z,978.21
2023-03-08T03:58:24.871Z,978.13
2023-03-08T03:59:26.656Z,978.08
2023-03-08T04:00:24.824Z,978.12
2023-03-08T04:01:24.793Z,978.13
2023-03-08T04:02:24.775Z,978.14
2023-03-08T04:03:24.968Z,978.09
2023-03-08T04:04:24.728Z,978.12
2023-03-08T04:05:24.709Z,978.12
2023-03-08T04:06:24.670Z,978.12
2023-03-08T04:07:24.646Z,978.06
2023-03-08T04:08:24.648Z,978.11
2023-03-08T04:09:24.592Z,978.10
2023-03-08T04:10:24.568Z,978.13
2023-03-08T04:11:24.546Z,978.12
2023-03-08T04:12:24.517Z,978.13
2023-03-08T04:13:24.484Z,978.09
2023-03-08T04:14:24.464Z,978.12
2023-03-08T04:15:24.439Z,978.10
2023-03-08T04:16:24.531Z,978.09
2023-03-08T04:17:24.405Z,978.11
2023-03-08T04:18:24.369Z,978.05
2023-03-08T04:19:24.341Z,978.02
2023-03-08T04:20:24.360Z,977.99
2023-03-08T04:21:24.282Z,977.99
2023-03-08T04:22:24.263Z,977.96
2023-03-08T04:23:24.230Z,977.93
2023-03-08T04:24:24.224Z,977.95
2023-03-08T04:25:24.176Z,977.99
2023-03-08T04:26:24.159Z,977.93
2023-03-08T04:27:24.134Z,977.92
2023-03-08T04:28:24.106Z,977.88
2023-03-08T04:29:24.077Z,977.84
2023-03-08T04:30:24.066Z,977.79
2023-03-08T04:31:24.082Z,977.77
2023-03-08T04:32:24.036Z,977.82
2023-03-08T04:33:23.974Z,977.81
2023-03-08T04:34:23.950Z,977.80
2023-03-08T04:35:23.954Z,977.78
2023-03-08T04:36:23.908Z,977.80
2023-03-08T04:37:23.876Z,977.80
2023-03-08T04:38:23.845Z,977.80
2023-03-08T04:39:23.825Z,977.84
2023-03-08T04:40:23.795Z,977.78
2023-03-08T04:41:23.768Z,977.78
2023-03-08T04:42:23.750Z,977.78
2023-03-08T04:43:23.718Z,977.74
2023-03-08T04:44:23.696Z,977.77
2023-03-08T04:45:23.674Z,977.74
2023-03-08T04:46:23.711Z,977.74
2023-03-08T04:47:23.648Z,977.68
2023-03-08T04:48:26.357Z,977.75
2023-03-08T04:49:23.587Z,977.71
2023-03-08T04:50:23.537Z,977.69
2023-03-08T04:51:23.515Z,977.68
2023-03-08T04:52:23.491Z,977.66
2023-03-08T04:53:23.465Z,977.72
2023-03-08T04:54:23.432Z,977.74
2023-03-08T04:55:23.419Z,977.71
2023-03-08T04:56:23.381Z,977.70
2023-03-08T04:57:23.361Z,977.69
2023-03-08T04:58:23.342Z,977.72
2023-03-08T04:59:23.309Z,977.71
2023-03-08T05:00:23.278Z,977.68
2023-03-08T05:01:23.324Z,977.70
2023-03-08T05:02:23.337Z,977.63
2023-03-08T05:03:23.215Z,977.62
2023-03-08T05:04:23.205Z,977.63
2023-03-08T05:05:23.166Z,977.63
2023-03-08T05:06:23.162Z,977.64
2023-03-08T05:07:23.104Z,977.65
2023-03-08T05:08:23.088Z,977.67
2023-03-08T05:09:23.056Z,977.70
2023-03-08T05:10:23.026Z,977.70
2023-03-08T05:11:23.010Z,977.68
2023-03-08T05:12:22.977Z,977.70
2023-03-08T05:13:22.955Z,977.68
2023-03-08T05:14:22.919Z,977.69
2023-03-08T05:15:22.897Z,977.67
2023-03-08T05:16:22.918Z,977.67
2023-03-08T05:17:22.850Z,977.63
2023-03-08T05:18:22.836Z,977.59
2023-03-08T05:19:22.798Z,977.59
2023-03-08T05:20:22.783Z,977.64
2023-03-08T05:21:22.761Z,977.56
2023-03-08T05:22:22.738Z,977.57
2023-03-08T05:23:22.696Z,977.57
2023-03-08T05:24:22.675Z,977.57
2023-03-08T05:25:22.651Z,977.56
2023-03-08T05:26:22.635Z,977.57
2023-03-08T05:27:22.600Z,977.51
2023-03-08T05:28:22.579Z,977.55
2023-03-08T05:29:22.536Z,977.48
2023-03-08T05:30:22.534Z,977.48
2023-03-08T05:31:22.568Z,977.48
2023-03-08T05:32:22.486Z,977.48
2023-03-08T05:33:22.458Z,977.49
2023-03-08T05:34:22.421Z,977.49
2023-03-08T05:35:22.388Z,977.50
2023-03-08T05:36:22.358Z,977.46
2023-03-08T05:37:22.332Z,977.50
2023-03-08T05:38:22.368Z,977.47
2023-03-08T05:39:22.287Z,977.45
2023-03-08T05:40:22.326Z,977.49
2023-03-08T05:41:22.255Z,977.46
2023-03-08T05:42:22.208Z,977.53
2023-03-08T05:43:22.188Z,977.51
2023-03-08T05:44:22.148Z,977.46
2023-03-08T05:45:22.149Z,977.43
2023-03-08T05:46:22.230Z,977.38
2023-03-08T05:47:22.079Z,977.40
2023-03-08T05:48:22.045Z,977.37
2023-03-08T05:49:22.048Z,977.37
2023-03-08T05:50:21.994Z,977.41
2023-03-08T05:51:21.991Z,977.40
2023-03-08T05:52:21.953Z,977.37
2023-03-08T05:53:21.923Z,977.35
2023-03-08T05:54:21.901Z,977.38
2023-03-08T05:55:21.892Z,977.33
2023-03-08T05:56:21.854Z,977.32
2023-03-08T05:57:21.818Z,977.38
2023-03-08T05:58:21.801Z,977.37
2023-03-08T05:59:21.763Z,977.39
2023-03-08T06:00:21.740Z,977.41
2023-03-08T06:01:21.712Z,977.41
2023-03-08T06:02:21.768Z,977.36
2023-03-08T06:03:21.791Z,977.36
2023-03-08T06:04:21.628Z,977.36
2023-03-08T06:05:21.613Z,977.34
2023-03-08T06:06:21.587Z,977.36
2023-03-08T06:07:21.570Z,977.30
2023-03-08T06:08:21.537Z,977.37
2023-03-08T06:09:21.511Z,977.32
2023-03-08T06:10:21.477Z,977.35
2023-03-08T06:11:21.480Z,977.38
2023-03-08T06:12:21.445Z,977.43
2023-03-08T06:13:21.402Z,977.44
2023-03-08T06:14:21.375Z,977.43
2023-03-08T06:15:21.388Z,977.42
2023-03-08T06:16:21.371Z,977.40
2023-03-08T06:17:21.299Z,977.41
2023-03-08T06:18:21.276Z,977.41
2023-03-08T06:19:21.335Z,977.34
2023-03-08T06:20:21.217Z,977.35
2023-03-08T06:21:21.210Z,977.34
2023-03-08T06:22:21.172Z,977.36
2023-03-08T06:23:21.148Z,977.34
2023-03-08T06:24:21.115Z,977.32
2023-03-08T06:25:21.091Z,977.26
2023-03-08T06:26:21.065Z,977.19
2023-03-08T06:27:21.038Z,977.21
2023-03-08T06:28:21.008Z,977.16
2023-03-08T06:29:20.989Z,977.08
2023-03-08T06:30:20.961Z,977.07
2023-03-08T06:31:20.972Z,977.05
2023-03-08T06:32:20.964Z,977.06
2023-03-08T06:33:20.887Z,977.06
2023-03-08T06:34:20.857Z,976.98
2023-03-08T06:35:20.910Z,977.00
2023-03-08T06:36:20.805Z,977.02
2023-03-08T06:37:20.781Z,977.00
2023-03-08T06:38:20.770Z,976.98
2023-03-08T06:39:20.739Z,977.02
2023-03-08T06:40:20.711Z,976.97
2023-03-08T06:41:20.686Z,976.96
2023-03-08T06:42:28.353Z,976.95
2023-03-08T06:43:20.642Z,976.94
2023-03-08T06:44:20.622Z,976.92
2023-03-08T06:45:20.575Z,976.93
2023-03-08T06:46:20.650Z,977.02
2023-03-08T06:47:20.524Z,977.00
2023-03-08T06:48:20.548Z,977.00
2023-03-08T06:49:20.530Z,976.98
2023-03-08T06:50:20.456Z,976.99
2023-03-08T06:51:20.444Z,976.97
2023-03-08T06:52:20.400Z,976.95
2023-03-08T06:53:20.414Z,976.94
2023-03-08T06:54:20.349Z,976.93
2023-03-08T06:55:20.398Z,976.86
2023-03-08T06:56:20.377Z,976.88
2023-03-08T06:57:20.270Z,976.83
2023-03-08T06:58:20.242Z,976.84
2023-03-08T06:59:20.225Z,976.83
2023-03-08T07:00:20.196Z,976.82
2023-03-08T07:01:20.254Z,976.81
2023-03-08T07:02:20.142Z,976.80
2023-03-08T07:03:20.110Z,976.72
2023-03-08T07:04:20.229Z,976.69
2023-03-08T07:05:20.056Z,976.70
2023-03-08T07:06:20.021Z,976.72
2023-03-08T07:07:20.063Z,976.74
2023-03-08T07:08:19.974Z,976.73
2023-03-08T07:09:19.953Z,976.73
2023-03-08T07:10:19.919Z,976.78
2023-03-08T07:11:19.900Z,976.71
2023-03-08T07:12:19.866Z,976.63
2023-03-08T07:13:19.865Z,976.59
2023-03-08T07:14:19.854Z,976.54
2023-03-08T07:15:19.794Z,976.55
2023-03-08T07:16:19.820Z,976.54
2023-03-08T07:17:19.743Z,976.52
2023-03-08T07:18:19.703Z,976.57
2023-03-08T07:19:19.707Z,976.58
2023-03-08T07:20:19.653Z,976.54
2023-03-08T07:21:19.630Z,976.52
2023-03-08T07:22:19.611Z,976.52
2023-03-08T07:23:19.576Z,976.46
2023-03-08T07:24:19.560Z,976.43
2023-03-08T07:25:19.528Z,976.40
2023-03-08T07:26:19.554Z,976.37
2023-03-08T07:27:19.486Z,976.43
2023-03-08T07:28:19.443Z,976.37
2023-03-08T07:29:19.433Z,976.39
2023-03-08T07:30:19.430Z,976.39
2023-03-08T07:31:19.368Z,976.38
2023-03-08T07:32:19.478Z,976.29
2023-03-08T07:33:19.320Z,976.34
2023-03-08T07:34:19.283Z,976.27
2023-03-08T07:35:19.266Z,976.25
2023-03-08T07:36:19.296Z,976.21
2023-03-08T07:37:19.223Z,976.18
2023-03-08T07:38:19.200Z,976.16
2023-03-08T07:39:19.187Z,976.16
2023-03-08T07:40:19.136Z,976.12
2023-03-08T07:41:19.124Z,976.03
2023-03-08T07:42:19.082Z,976.02
2023-03-08T07:43:19.056Z,976.02
2023-03-08T07:44:19.033Z,975.97
2023-03-08T07:45:19.016Z,975.95
2023-03-08T07:46:18.998Z,975.98
2023-03-08T07:47:18.955Z,975.90
2023-03-08T07:48:18.925Z,975.85
2023-03-08T07:49:18.904Z,975.89
2023-03-08T07:50:18.869Z,975.90
2023-03-08T07:51:18.893Z,975.88
2023-03-08T07:52:18.815Z,975.85
2023-03-08T07:53:18.803Z,975.82
2023-03-08T07:54:20.456Z,975.79
2023-03-08T07:55:18.793Z,975.77
2023-03-08T07:56:18.713Z,975.74
2023-03-08T07:57:18.701Z,975.68
2023-03-08T07:58:18.662Z,975.73
2023-03-08T07:59:18.643Z,975.71
2023-03-08T08:00:18.611Z,975.72
2023-03-08T08:01:18.592Z,975.68
2023-03-08T08:02:18.560Z,975.66
2023-03-08T08:03:18.597Z,975.63
2023-03-08T08:04:18.619Z,975.60
2023-03-08T08:05:18.535Z,975.59
2023-03-08T08:06:18.456Z,975.58
2023-03-08T08:07:18.436Z,975.52
2023-03-08T08:08:18.398Z,975.51
2023-03-08T08:09:18.423Z,975.39
2023-03-08T08:10:18.359Z,975.37
2023-03-08T08:11:18.332Z,975.32
2023-03-08T08:12:18.292Z,975.32
2023-03-08T08:13:18.278Z,975.26
2023-03-08T08:14:18.243Z,975.28
2023-03-08T08:15:18.224Z,975.20
2023-03-08T08:16:18.274Z,975.17
2023-03-08T08:17:18.168Z,975.13
2023-03-08T08:18:18.143Z,975.17
2023-03-08T08:19:18.134Z,975.15
2023-03-08T08:20:18.086Z,975.14
2023-03-08T08:21:18.061Z,975.17
2023-03-08T08:22:18.040Z,975.14
2023-03-08T08:23:18.016Z,975.09
2023-03-08T08:24:17.983Z,975.03
2023-03-08T08:25:17.963Z,975.01
2023-03-08T08:26:17.925Z,974.95
2023-03-08T08:27:17.907Z,974.93
2023-03-08T08:28:17.881Z,974.88
2023-03-08T08:29:17.872Z,974.85
2023-03-08T08:30:17.826Z,974.79
2023-03-08T08:31:17.822Z,974.82
2023-03-08T08:32:17.808Z,974.82
2023-03-08T08:33:17.757Z,974.79
2023-03-08T08:34:17.716Z,974.77
2023-03-08T08:35:17.705Z,974.77
2023-03-08T08:36:17.727Z,974.77
2023-03-08T08:37:17.646Z,974.74
2023-03-08T08:38:17.611Z,974.64
2023-03-08T08:39:17.619Z,974.64
2023-03-08T08:40:17.594Z,974.58
2023-03-08T08:41:17.547Z,974.54
2023-03-08T08:42:17.514Z,974.48
2023-03-08T08:43:17.489Z,974.49
2023-03-08T08:44:17.458Z,974.52
2023-03-08T08:45:17.437Z,974.52
2023-03-08T08:46:17.456Z,974.46
2023-03-08T08:47:17.381Z,974.42
2023-03-08T08:48:17.352Z,974.36
2023-03-08T08:49:17.326Z,974.42
2023-03-08T08:50:17.311Z,974.32
2023-03-08T08:51:17.277Z,974.32
2023-03-08T08:52:17.250Z,974.37
2023-03-08T08:53:17.276Z,974.41
2023-03-08T08:54:17.207Z,974.37
2023-03-08T08:55:17.180Z,974.34
2023-03-08T08:56:27.004Z,974.32
2023-03-08T08:57:17.124Z,974.32
2023-03-08T08:58:17.101Z,974.31
2023-03-08T08:59:17.089Z,974.28
2023-03-08T09:00:17.054Z,974.22
2023-03-08T09:01:17.017Z,974.18
2023-03-08T09:02:17.018Z,974.11
2023-03-08T09:03:16.976Z,974.15
2023-03-08T09:04:17.252Z,974.12
2023-03-08T09:05:16.935Z,974.06
2023-03-08T09:06:16.891Z,974.01
2023-03-08T09:07:16.852Z,974.05
2023-03-08T09:08:16.834Z,973.99
2023-03-08T09:09:16.801Z,973.90
2023-03-08T09:10:16.784Z,973.93
2023-03-08T09:11:16.767Z,973.91
2023-03-08T09:12:16.726Z,973.95
2023-03-08T09:13:16.710Z,973.91
2023-03-08T09:14:16.679Z,973.94
2023-03-08T09:15:16.653Z,973.89
2023-03-08T09:16:16.676Z,973.88
2023-03-08T09:17:16.597Z,973.85
2023-03-08T09:18:16.582Z,973.81
2023-03-08T09:19:16.593Z,973.88
2023-03-08T09:20:16.532Z,973.81
2023-03-08T09:21:16.499Z,973.82
2023-03-08T09:22:16.491Z,973.79
2023-03-08T09:23:16.502Z,973.79
2023-03-08T09:24:16.429Z,973.76
2023-03-08T09:25:16.415Z,973.76
2023-03-08T09:26:16.379Z,973.77
2023-03-08T09:27:16.355Z,973.77
2023-03-08T09:28:16.319Z,973.74
2023-03-08T09:29:16.296Z,973.71
2023-03-08T09:30:16.268Z,973.70
2023-03-08T09:31:16.321Z,973.61
2023-03-08T09:32:16.337Z,973.64
2023-03-08T09:33:16.200Z,973.62
2023-03-08T09:34:16.174Z,973.63
2023-03-08T09:35:16.144Z,973.61
2023-03-08T09:36:16.121Z,973.59
2023-03-08T09:37:16.088Z,973.66
2023-03-08T09:38:16.066Z,973.65
2023-03-08T09:39:16.055Z,973.69
2023-03-08T09:40:16.035Z,973.73
2023-03-08T09:41:15.992Z,973.71
2023-03-08T09:42:15.966Z,973.80
2023-03-08T09:43:15.939Z,973.77
2023-03-08T09:44:15.938Z,973.79
2023-03-08T09:45:15.890Z,973.78
2023-03-08T09:46:15.890Z,973.78
2023-03-08T09:47:15.830Z,973.76
2023-03-08T09:48:15.889Z,973.76
2023-03-08T09:49:15.810Z,973.71
2023-03-08T09:50:15.765Z,973.66
2023-03-08T09:51:15.725Z,973.67
2023-03-08T09:52:15.707Z,973.58
2023-03-08T09:53:15.679Z,973.59
2023-03-08T09:54:15.652Z,973.56
2023-03-08T09:55:15.761Z,973.48
2023-03-08T09:56:15.627Z,973.53
2023-03-08T09:57:15.595Z,973.52
2023-03-08T09:58:15.551Z,973.41
2023-03-08T09:59:15.517Z,973.41
2023-03-08T10:00:15.496Z,973.44
2023-03-08T10:01:15.465Z,973.46
2023-03-08T10:02:15.444Z,973.43
2023-03-08T10:03:15.433Z,973.36
2023-03-08T10:04:15.439Z,973.40
2023-03-08T10:05:15.363Z,973.40
2023-03-08T10:06:15.348Z,973.39
2023-03-08T10:07:15.306Z,973.38
2023-03-08T10:08:15.283Z,973.34
2023-03-08T10:09:15.257Z,973.27
2023-03-08T10:10:15.239Z,973.22
2023-03-08T10:11:15.211Z,973.26
2023-03-08T10:12:15.191Z,973.32
2023-03-08T10:13:15.153Z,973.31
2023-03-08T10:14:15.132Z,973.33
2023-03-08T10:15:15.104Z,973.30
2023-03-08T10:16:15.107Z,973.30
2023-03-08T10:17:15.068Z,973.19
2023-03-08T10:18:15.027Z,973.12
2023-03-08T10:19:15.007Z,973.14
2023-03-08T10:20:14.983Z,973.09
2023-03-08T10:21:14.943Z,973.09
2023-03-08T10:22:14.964Z,973.08
2023-03-08T10:23:14.910Z,973.15
2023-03-08T10:24:14.881Z,973.09
2023-03-08T10:25:14.846Z,973.09
2023-03-08T10:26:14.818Z,973.14
2023-03-08T10:27:14.791Z,973.13
2023-03-08T10:28:14.769Z,973.17
2023-03-08T10:29:14.737Z,973.10
2023-03-08T10:30:14.726Z,973.09
2023-03-08T10:31:14.722Z,973.02
2023-03-08T10:32:14.820Z,973.06
2023-03-08T10:33:14.638Z,973.07
2023-03-08T10:34:14.645Z,973.03
2023-03-08T10:35:14.586Z,973.09
2023-03-08T10:36:14.565Z,973.11
2023-03-08T10:37:14.537Z,973.10
2023-03-08T10:38:14.521Z,973.04
2023-03-08T10:39:14.487Z,972.93
2023-03-08T10:40:14.466Z,972.96
2023-03-08T10:41:14.473Z,972.95
2023-03-08T10:42:14.436Z,972.85
2023-03-08T10:43:14.385Z,972.92
2023-03-08T10:44:14.364Z,972.97
2023-03-08T10:45:14.339Z,972.92
2023-03-08T10:46:14.448Z,972.95
2023-03-08T10:47:14.280Z,972.94
2023-03-08T10:48:14.262Z,972.93
2023-03-08T10:49:14.225Z,972.98
2023-03-08T10:50:14.213Z,972.91
2023-03-08T10:51:14.198Z,972.91
2023-03-08T10:52:14.164Z,972.89
2023-03-08T10:53:14.123Z,972.77
2023-03-08T10:54:14.104Z,972.81
2023-03-08T10:55:14.094Z,972.82
2023-03-08T10:56:14.085Z,972.81
2023-03-08T10:57:14.023Z,972.77
2023-03-08T10:58:14.004Z,972.76
2023-03-08T10:59:13.974Z,972.73
2023-03-08T11:00:13.996Z,972.73
2023-03-08T11:01:13.920Z,972.69
2023-03-08T11:02:13.919Z,972.61
2023-03-08T11:03:13.879Z,972.65
2023-03-08T11:04:13.883Z,972.64
2023-03-08T11:05:13.882Z,972.56
2023-03-08T11:06:13.796Z,972.55
2023-03-08T11:07:13.786Z,972.51
2023-03-08T11:08:13.745Z,972.49
2023-03-08T11:09:13.715Z,972.47
2023-03-08T11:10:13.718Z,972.48
2023-03-08T11:11:13.685Z,972.48
2023-03-08T11:12:13.731Z,972.43
2023-03-08T11:13:13.612Z,972.41
2023-03-08T11:14:13.598Z,972.36
2023-03-08T11:15:13.582Z,972.33
2023-03-08T11:16:13.629Z,972.29
2023-03-08T11:17:13.506Z,972.27
2023-03-08T11:18:13.494Z,972.27
2023-03-08T11:19:13.513Z,972.27
2023-03-08T11:20:13.433Z,972.18
2023-03-08T11:21:13.399Z,972.22
2023-03-08T11:22:13.405Z,972.19
2023-03-08T11:23:13.347Z,972.18
2023-03-08T11:24:13.426Z,972.21
2023-03-08T11:25:13.299Z,972.20
2023-03-08T11:26:13.281Z,972.13
2023-03-08T11:27:13.273Z,972.17
2023-03-08T11:28:13.289Z,972.14
2023-03-08T11:29:13.277Z,972.17
2023-03-08T11:30:13.175Z,972.15
2023-03-08T11:31:13.170Z,972.07
2023-03-08T11:32:13.180Z,972.09
2023-03-08T11:33:13.400Z,972.09
2023-03-08T11:34:13.145Z,972.14
2023-03-08T11:35:13.052Z,972.05
2023-03-08T11:36:13.267Z,972.06
2023-03-08T11:37:13.004Z,972.04
2023-03-08T11:38:12.970Z,972.01
2023-03-08T11:39:12.936Z,972.02
2023-03-08T11:40:12.922Z,972.03
2023-03-08T11:41:12.917Z,972.07
2023-03-08T11:42:12.866Z,971.97
2023-03-08T11:43:12.845Z,971.99
2023-03-08T11:44:12.821Z,971.97
2023-03-08T11:45:12.786Z,972.00
2023-03-08T11:46:12.822Z,972.02
2023-03-08T11:47:12.734Z,972.02
2023-03-08T11:48:12.773Z,971.98
2023-03-08T11:49:12.681Z,972.01
2023-03-08T11:50:12.668Z,971.98
2023-03-08T11:51:12.659Z,971.89
2023-03-08T11:52:12.621Z,971.87
2023-03-08T11:53:12.585Z,971.91
2023-03-08T11:54:12.564Z,971.95
2023-03-08T11:55:12.543Z,971.94
2023-03-08T11:56:12.501Z,971.94
2023-03-08T11:57:12.477Z,971.91
2023-03-08T11:58:12.453Z,971.84
2023-03-08T11:59:12.419Z,971.89
2023-03-08T12:00:12.397Z,971.90
2023-03-08T12:01:12.391Z,971.90
2023-03-08T12:02:12.347Z,971.88
2023-03-08T12:03:12.350Z,971.86
2023-03-08T12:04:12.392Z,971.85
2023-03-08T12:05:12.326Z,971.86
2023-03-08T12:06:26.346Z,971.83
2023-03-08T12:07:12.388Z,971.80
2023-03-08T12:08:12.313Z,971.82
2023-03-08T12:09:12.194Z,971.81
2023-03-08T12:10:12.178Z,971.76
2023-03-08T12:11:12.124Z,971.76
2023-03-08T12:12:12.093Z,971.72
2023-03-08T12:13:12.060Z,971.69
2023-03-08T12:14:12.041Z,971.72
2023-03-08T12:15:12.039Z,971.72
2023-03-08T12:16:12.098Z,971.67
2023-03-08T12:17:12.083Z,971.76
2023-03-08T12:18:11.935Z,971.74
2023-03-08T12:19:11.906Z,971.75
2023-03-08T12:20:11.885Z,971.79
2023-03-08T12:21:11.856Z,971.78
2023-03-08T12:22:11.848Z,971.73
2023-03-08T12:23:11.820Z,971.75
2023-03-08T12:24:11.861Z,971.67
2023-03-08T12:25:11.774Z,971.68
2023-03-08T12:26:11.734Z,971.64
2023-03-08T12:27:11.707Z,971.62
2023-03-08T12:28:11.750Z,971.53